Gordon V.sr. — WDB8505 — position and weather

sailwx.info

Track history (hours):
 
Tides and Currents Weather Stations Pressure Air Temp Water Temp Dewpoint Dewpoint Depression Visibility Wind Speed Wind Dir Waves Ship Positions

Gordon V.sr.

Owner: B&G TOWING L.L.C., Lafitte, LA. More information available from US FCC via Universal Licensing System and Coast Guard Vessel Documentation Center.

Last reported at 2014-Dec-18 06:32 UTC. Time now 2014-Dec-18 07:26 UTC.
Position N 29°39' W 091°25'.

MMSI: 365910942.

Date/timePositionNaut miles runAvg speedWind from/ knotsBaromVisibWave heightAir tempDewpointWater temp
2014-Dec-18 06:32N 29°39' W 091°25'3 2.5
2014-Dec-18 05:30N 29°41' W 091°28'3 2.7
2014-Dec-18 04:32N 29°42' W 091°31'2 2.3
2014-Dec-18 03:32N 29°43' W 091°33'2 2.5
2014-Dec-18 02:32N 29°45' W 091°35'  
2014-Dec-15 08:22N 29°43' W 091°33'4 4.3
2014-Dec-15 07:29N 29°41' W 091°29'4 3.8
2014-Dec-15 06:32N 29°40' W 091°26'4 4.1
2014-Dec-15 05:33N 29°39' W 091°21'4 3.6
2014-Dec-15 04:33N 29°39' W 091°17'4 3.9
2014-Dec-15 03:33N 29°41' W 091°13'3 3.0
2014-Dec-15 02:33N 29°41' W 091°10'3 3.2
2014-Dec-15 01:33N 29°39' W 091°07'3 3.3
2014-Dec-15 00:33N 29°37' W 091°04'4 3.6
2014-Dec-14 23:34N 29°37' W 090°60'4 4.1
2014-Dec-14 22:33N 29°34' W 090°57'49 2.5
2014-Dec-14 02:29N 29°50' W 090°03'5 3.6
2014-Dec-14 01:13N 29°54' W 089°60'2 2.0
2014-Dec-14 00:11N 29°55' W 089°58'0 0.2
2014-Dec-13 23:07N 29°55' W 089°58'0 0.0
2014-Dec-13 22:25N 29°55' W 089°58'0 0.0
2014-Dec-13 21:24N 29°55' W 089°58'0 0.0
2014-Dec-13 20:08N 29°55' W 089°58'0 0.0
2014-Dec-13 19:31N 29°55' W 089°58'0 0.0
2014-Dec-13 18:30N 29°55' W 089°58'0 0.0
2014-Dec-13 17:32N 29°55' W 089°58'0 0.0
2014-Dec-13 16:29N 29°55' W 089°58'1 0.5
2014-Dec-13 15:29N 29°56' W 089°59'2 2.2
2014-Dec-13 14:33N 29°57' W 090°01'0 0.3
2014-Dec-13 13:28N 29°57' W 090°01'0 0.3
2014-Dec-13 12:33N 29°56' W 090°01'0 0.0
2014-Dec-12 17:26N 29°56' W 090°01'0 0.0
2014-Dec-12 16:31N 29°56' W 090°01'0 0.0
2014-Dec-12 15:12N 29°56' W 090°01'0 0.0
2014-Dec-12 14:32N 29°56' W 090°01'0 0.0
2014-Dec-12 13:28N 29°56' W 090°01'0 0.1
2014-Dec-12 12:32N 29°57' W 090°01'0 0.0
2014-Dec-12 11:34N 29°57' W 090°01'0 0.0
2014-Dec-12 10:19N 29°57' W 090°01'0 0.0
2014-Dec-12 09:29N 29°57' W 090°01'0 0.0
2014-Dec-12 08:29N 29°57' W 090°01'0 0.0
2014-Dec-12 07:32N 29°57' W 090°01'0 0.0
2014-Dec-12 06:31N 29°57' W 090°01'1 1.2
2014-Dec-12 05:33N 29°56' W 089°60'2 0.7
2014-Dec-12 03:25N 29°54' W 089°59'1 0.3
2014-Dec-12 00:07N 29°54' W 089°60'42 2.7
2014-Dec-11 08:30N 29°35' W 090°43'3 1.4
2014-Dec-11 06:29N 29°33' W 090°46'11 2.6
2014-Dec-11 02:18N 29°35' W 090°58'4 4.8
2014-Dec-11 01:33N 29°37' W 091°00'4 4.4
2014-Dec-11 00:34N 29°38' W 091°05'4 4.0
2014-Dec-10 23:33N 29°41' W 091°09'2 2.4
2014-Dec-10 22:33N 29°41' W 091°11'3 3.2
2014-Dec-10 21:33N 29°40' W 091°15'2 1.7
2014-Dec-10 20:33N 29°39' W 091°16'4 3.9
2014-Dec-10 19:33N 29°38' W 091°21'11 3.6
2014-Dec-10 16:27N 29°43' W 091°33'3 2.9
2014-Dec-10 15:27N 29°45' W 091°35'9 2.8
2014-Dec-10 12:11N 29°46' W 091°46'9 0.9
2014-Dec-10 01:26N 29°45' W 091°35'4 4.1
2014-Dec-10 00:23N 29°42' W 091°31'4 5.0
2014-Dec-09 23:31N 29°40' W 091°27'5 4.5
2014-Dec-09 22:22N 29°39' W 091°21'4 4.8
2014-Dec-09 21:33N 29°39' W 091°17'5 5.0
2014-Dec-09 20:33N 29°41' W 091°12'3 2.8
2014-Dec-09 19:33N 29°41' W 091°09'4 3.5
2014-Dec-09 18:33N 29°38' W 091°06'4 3.9
2014-Dec-09 17:31N 29°37' W 091°01'4 3.9
2014-Dec-09 16:29N 29°35' W 090°58'11 4.5
2014-Dec-09 14:04N 29°32' W 090°46'2 4.2
2014-Dec-09 13:33N 29°34' W 090°44'3 1.7
2014-Dec-09 11:32N 29°37' W 090°42'2 1.9
2014-Dec-09 10:14N 29°36' W 090°39'7 3.9
2014-Dec-09 08:32N 29°34' W 090°32'12 3.4
2014-Dec-09 05:08N 29°38' W 090°20'18 3.7
2014-Dec-09 00:20N 29°49' W 090°04'8 0.9
2014-Dec-08 16:16N 29°56' W 090°01'2 0.5
2014-Dec-08 11:11N 29°54' W 089°59'7 2.7
2014-Dec-08 08:33N 29°49' W 090°04'  
Track history (hours):
 
Tides and Currents Weather Stations Pressure Air Temp Water Temp Dewpoint Dewpoint Depression Visibility Wind Speed Wind Dir Waves Ship Positions

Gordon V.sr.

Owner: B&G TOWING L.L.C., Lafitte, LA. More information available from US FCC via Universal Licensing System and Coast Guard Vessel Documentation Center.

Last reported at 2014-Dec-18 06:32 UTC. Time now 2014-Dec-18 07:26 UTC.
Position N 29°39' W 091°25'.

MMSI: 365910942.

Date/timePositionNaut miles runAvg speedWind from/ knotsBaromVisibWave heightAir tempDewpointWater temp
2014-Dec-18 06:32N 29°39' W 091°25'3 2.5
2014-Dec-18 05:30N 29°41' W 091°28'3 2.7
2014-Dec-18 04:32N 29°42' W 091°31'2 2.3
2014-Dec-18 03:32N 29°43' W 091°33'2 2.5
2014-Dec-18 02:32N 29°45' W 091°35'  
2014-Dec-15 08:22N 29°43' W 091°33'4 4.3
2014-Dec-15 07:29N 29°41' W 091°29'4 3.8
2014-Dec-15 06:32N 29°40' W 091°26'4 4.1
2014-Dec-15 05:33N 29°39' W 091°21'4 3.6
2014-Dec-15 04:33N 29°39' W 091°17'4 3.9
2014-Dec-15 03:33N 29°41' W 091°13'3 3.0
2014-Dec-15 02:33N 29°41' W 091°10'3 3.2
2014-Dec-15 01:33N 29°39' W 091°07'3 3.3
2014-Dec-15 00:33N 29°37' W 091°04'4 3.6
2014-Dec-14 23:34N 29°37' W 090°60'4 4.1
2014-Dec-14 22:33N 29°34' W 090°57'49 2.5
2014-Dec-14 02:29N 29°50' W 090°03'5 3.6
2014-Dec-14 01:13N 29°54' W 089°60'2 2.0
2014-Dec-14 00:11N 29°55' W 089°58'0 0.2
2014-Dec-13 23:07N 29°55' W 089°58'0 0.0
2014-Dec-13 22:25N 29°55' W 089°58'0 0.0
2014-Dec-13 21:24N 29°55' W 089°58'0 0.0
2014-Dec-13 20:08N 29°55' W 089°58'0 0.0
2014-Dec-13 19:31N 29°55' W 089°58'0 0.0
2014-Dec-13 18:30N 29°55' W 089°58'0 0.0
2014-Dec-13 17:32N 29°55' W 089°58'0 0.0
2014-Dec-13 16:29N 29°55' W 089°58'1 0.5
2014-Dec-13 15:29N 29°56' W 089°59'2 2.2
2014-Dec-13 14:33N 29°57' W 090°01'0 0.3
2014-Dec-13 13:28N 29°57' W 090°01'0 0.3
2014-Dec-13 12:33N 29°56' W 090°01'0 0.0
2014-Dec-12 17:26N 29°56' W 090°01'0 0.0
2014-Dec-12 16:31N 29°56' W 090°01'0 0.0
2014-Dec-12 15:12N 29°56' W 090°01'0 0.0
2014-Dec-12 14:32N 29°56' W 090°01'0 0.0
2014-Dec-12 13:28N 29°56' W 090°01'0 0.1
2014-Dec-12 12:32N 29°57' W 090°01'0 0.0
2014-Dec-12 11:34N 29°57' W 090°01'0 0.0
2014-Dec-12 10:19N 29°57' W 090°01'0 0.0
2014-Dec-12 09:29N 29°57' W 090°01'0 0.0
2014-Dec-12 08:29N 29°57' W 090°01'0 0.0
2014-Dec-12 07:32N 29°57' W 090°01'0 0.0
2014-Dec-12 06:31N 29°57' W 090°01'1 1.2
2014-Dec-12 05:33N 29°56' W 089°60'2 0.7
2014-Dec-12 03:25N 29°54' W 089°59'1 0.3
2014-Dec-12 00:07N 29°54' W 089°60'42 2.7
2014-Dec-11 08:30N 29°35' W 090°43'3 1.4
2014-Dec-11 06:29N 29°33' W 090°46'11 2.6
2014-Dec-11 02:18N 29°35' W 090°58'4 4.8
2014-Dec-11 01:33N 29°37' W 091°00'4 4.4
2014-Dec-11 00:34N 29°38' W 091°05'4 4.0
2014-Dec-10 23:33N 29°41' W 091°09'2 2.4
2014-Dec-10 22:33N 29°41' W 091°11'3 3.2
2014-Dec-10 21:33N 29°40' W 091°15'2 1.7
2014-Dec-10 20:33N 29°39' W 091°16'4 3.9
2014-Dec-10 19:33N 29°38' W 091°21'11 3.6
2014-Dec-10 16:27N 29°43' W 091°33'3 2.9
2014-Dec-10 15:27N 29°45' W 091°35'9 2.8
2014-Dec-10 12:11N 29°46' W 091°46'9 0.9
2014-Dec-10 01:26N 29°45' W 091°35'4 4.1
2014-Dec-10 00:23N 29°42' W 091°31'4 5.0
2014-Dec-09 23:31N 29°40' W 091°27'5 4.5
2014-Dec-09 22:22N 29°39' W 091°21'4 4.8
2014-Dec-09 21:33N 29°39' W 091°17'5 5.0
2014-Dec-09 20:33N 29°41' W 091°12'3 2.8
2014-Dec-09 19:33N 29°41' W 091°09'4 3.5
2014-Dec-09 18:33N 29°38' W 091°06'4 3.9
2014-Dec-09 17:31N 29°37' W 091°01'4 3.9
2014-Dec-09 16:29N 29°35' W 090°58'11 4.5
2014-Dec-09 14:04N 29°32' W 090°46'2 4.2
2014-Dec-09 13:33N 29°34' W 090°44'3 1.7
2014-Dec-09 11:32N 29°37' W 090°42'2 1.9
2014-Dec-09 10:14N 29°36' W 090°39'7 3.9
2014-Dec-09 08:32N 29°34' W 090°32'12 3.4
2014-Dec-09 05:08N 29°38' W 090°20'18 3.7
2014-Dec-09 00:20N 29°49' W 090°04'8 0.9
2014-Dec-08 16:16N 29°56' W 090°01'2 0.5
2014-Dec-08 11:11N 29°54' W 089°59'7 2.7
2014-Dec-08 08:33N 29°49' W 090°04'  

Dump ship's entire track history